createdAt,value
2017-03-28T00:00:39.433Z,0
2017-03-28T00:01:19.943Z,0
2017-03-28T00:02:00.553Z,0
2017-03-28T00:02:41.100Z,0
2017-03-28T00:03:21.606Z,0
2017-03-28T00:04:02.125Z,0
2017-03-28T00:04:42.651Z,0
2017-03-28T00:05:23.174Z,0
2017-03-28T00:06:03.687Z,0
2017-03-28T00:06:44.196Z,0
2017-03-28T00:07:24.693Z,0
2017-03-28T00:08:05.212Z,0
2017-03-28T00:08:45.746Z,0
2017-03-28T00:09:26.242Z,0
2017-03-28T00:10:06.762Z,0
2017-03-28T00:10:47.281Z,0
2017-03-28T00:11:27.797Z,0
2017-03-28T00:12:08.302Z,0
2017-03-28T00:12:48.823Z,0
2017-03-28T00:13:29.320Z,0
2017-03-28T00:14:09.834Z,0
2017-03-28T00:14:50.346Z,0
2017-03-28T00:15:30.868Z,0
2017-03-28T00:16:11.375Z,0
2017-03-28T00:16:51.900Z,0
2017-03-28T00:17:32.423Z,0
2017-03-28T00:18:12.930Z,0
2017-03-28T00:18:53.436Z,0
2017-03-28T00:19:33.976Z,0
2017-03-28T00:20:14.504Z,0
2017-03-28T00:20:55.027Z,0
2017-03-28T00:21:35.535Z,0
2017-03-28T00:22:16.056Z,0
2017-03-28T00:22:56.584Z,0
2017-03-28T00:23:37.096Z,0
2017-03-28T00:24:17.611Z,0
2017-03-28T00:24:58.131Z,0
2017-03-28T00:25:38.647Z,0
2017-03-28T00:26:19.175Z,0
2017-03-28T00:26:59.700Z,0
2017-03-28T00:27:40.236Z,0
2017-03-28T00:28:20.802Z,0
2017-03-28T00:29:01.318Z,0
2017-03-28T00:29:41.848Z,0
2017-03-28T00:30:22.377Z,0
2017-03-28T00:31:02.894Z,0
2017-03-28T00:31:43.394Z,0
2017-03-28T00:32:23.929Z,0
2017-03-28T00:33:04.443Z,0
2017-03-28T00:33:44.958Z,0
2017-03-28T00:34:25.481Z,0
2017-03-28T00:35:05.996Z,0
2017-03-28T00:35:46.511Z,0
2017-03-28T00:36:27.047Z,0
2017-03-28T00:37:07.567Z,0
2017-03-28T00:37:48.078Z,0
2017-03-28T00:38:28.598Z,0
2017-03-28T00:39:09.119Z,0
2017-03-28T00:39:49.637Z,0
2017-03-28T00:40:30.160Z,0
2017-03-28T00:41:10.677Z,0
2017-03-28T00:41:51.197Z,0
2017-03-28T00:42:31.710Z,0
2017-03-28T00:43:12.223Z,0
2017-03-28T00:43:52.745Z,0
2017-03-28T00:44:33.265Z,0
2017-03-28T00:45:13.792Z,0
2017-03-28T00:45:54.319Z,0
2017-03-28T00:46:34.876Z,0
2017-03-28T00:47:15.394Z,0
2017-03-28T00:47:55.924Z,0
2017-03-28T00:48:36.442Z,0
2017-03-28T00:49:16.966Z,0
2017-03-28T00:49:57.492Z,0
2017-03-28T00:50:38.027Z,0
2017-03-28T00:51:18.543Z,0
2017-03-28T00:51:59.063Z,0
2017-03-28T00:52:39.592Z,0
2017-03-28T00:53:20.107Z,0
2017-03-28T00:54:00.630Z,0
2017-03-28T00:54:41.143Z,0
2017-03-28T00:55:21.655Z,0
2017-03-28T00:56:02.160Z,0
2017-03-28T00:56:42.692Z,0
2017-03-28T00:57:23.212Z,0
2017-03-28T00:58:03.716Z,0
2017-03-28T00:58:44.244Z,0
2017-03-28T00:59:24.787Z,0
2017-03-28T01:00:05.307Z,0
2017-03-28T01:00:45.825Z,0
2017-03-28T01:01:26.325Z,0
2017-03-28T01:02:06.894Z,0
2017-03-28T01:02:47.412Z,0
2017-03-28T01:03:27.952Z,0
2017-03-28T01:04:08.440Z,0
2017-03-28T01:04:48.946Z,0
2017-03-28T01:05:29.446Z,0
2017-03-28T01:06:09.956Z,0
2017-03-28T01:06:50.466Z,0
2017-03-28T01:07:30.992Z,0
2017-03-28T01:08:11.562Z,0
2017-03-28T01:08:52.057Z,0
2017-03-28T01:09:32.579Z,0
2017-03-28T01:10:13.108Z,0
2017-03-28T01:10:53.626Z,0
2017-03-28T01:11:34.150Z,0
2017-03-28T01:12:14.693Z,0
2017-03-28T01:12:55.178Z,0
2017-03-28T01:13:35.698Z,0
2017-03-28T01:14:16.206Z,0
2017-03-28T01:14:56.724Z,0
2017-03-28T01:15:37.240Z,0
2017-03-28T01:16:17.748Z,0
2017-03-28T01:16:58.272Z,0
2017-03-28T01:17:38.793Z,0
2017-03-28T01:18:19.321Z,0
2017-03-28T01:18:59.811Z,0
2017-03-28T01:19:40.357Z,0
2017-03-28T01:20:20.865Z,0
2017-03-28T01:21:01.419Z,0
2017-03-28T01:21:41.943Z,0
2017-03-28T01:22:22.464Z,0
2017-03-28T01:23:02.987Z,0
2017-03-28T01:23:43.502Z,0
2017-03-28T01:24:24.038Z,0
2017-03-28T01:25:04.563Z,0
2017-03-28T01:25:45.083Z,0
2017-03-28T01:26:25.568Z,0
2017-03-28T01:27:06.077Z,0
2017-03-28T01:27:46.598Z,0
2017-03-28T01:28:27.120Z,0
2017-03-28T01:29:07.646Z,0
2017-03-28T01:29:48.168Z,0
2017-03-28T01:30:28.711Z,0
2017-03-28T01:31:09.207Z,0
2017-03-28T01:31:49.777Z,0
2017-03-28T01:32:30.234Z,0
2017-03-28T01:33:10.767Z,0
2017-03-28T01:33:51.282Z,0
2017-03-28T01:34:31.798Z,0
2017-03-28T01:35:12.323Z,0
2017-03-28T01:35:52.852Z,0
2017-03-28T01:36:33.368Z,0
2017-03-28T01:37:13.888Z,0
2017-03-28T01:37:54.409Z,0
2017-03-28T01:38:34.920Z,0
2017-03-28T01:39:15.465Z,0
2017-03-28T01:39:55.986Z,0
2017-03-28T01:40:36.492Z,0
2017-03-28T01:41:17.002Z,0
2017-03-28T01:41:57.510Z,0
2017-03-28T01:42:38.029Z,0
2017-03-28T01:43:18.537Z,0
2017-03-28T01:43:59.057Z,0
2017-03-28T01:44:39.578Z,0
2017-03-28T01:45:20.087Z,0
2017-03-28T01:46:00.622Z,0
2017-03-28T01:46:41.134Z,0
2017-03-28T01:47:21.649Z,0
2017-03-28T01:48:02.175Z,0
2017-03-28T01:48:42.679Z,0
2017-03-28T01:49:23.214Z,0
2017-03-28T01:50:03.739Z,0
2017-03-28T01:50:44.259Z,0
2017-03-28T01:51:24.764Z,0
2017-03-28T01:52:05.268Z,0
2017-03-28T01:52:45.793Z,0
2017-03-28T01:53:26.312Z,0
2017-03-28T01:54:06.835Z,0
2017-03-28T01:54:47.345Z,0
2017-03-28T01:55:27.866Z,0
2017-03-28T01:56:08.385Z,0
2017-03-28T01:56:48.895Z,0
2017-03-28T01:57:29.397Z,0
2017-03-28T01:58:09.885Z,0
2017-03-28T01:58:50.391Z,0
2017-03-28T01:59:30.928Z,0
2017-03-28T02:00:11.439Z,0
2017-03-28T02:00:51.962Z,0
2017-03-28T02:01:32.485Z,0
2017-03-28T02:02:13.005Z,0
2017-03-28T02:02:53.526Z,0
2017-03-28T02:03:34.034Z,0
2017-03-28T02:04:14.548Z,0
2017-03-28T02:04:55.074Z,0
2017-03-28T02:05:35.561Z,0
2017-03-28T02:06:16.096Z,0
2017-03-28T02:06:56.574Z,0
2017-03-28T02:07:37.067Z,0
2017-03-28T02:08:17.610Z,0
2017-03-28T02:08:58.091Z,0
2017-03-28T02:09:38.606Z,0
2017-03-28T02:10:19.109Z,0
2017-03-28T02:10:59.609Z,0
2017-03-28T02:11:40.119Z,0
2017-03-28T02:12:20.638Z,0
2017-03-28T02:13:01.168Z,0
2017-03-28T02:13:41.703Z,0
2017-03-28T02:14:22.211Z,0
2017-03-28T02:15:02.728Z,0
2017-03-28T02:15:43.262Z,0
2017-03-28T02:16:23.747Z,0
2017-03-28T02:17:04.261Z,0
2017-03-28T02:17:44.786Z,0
2017-03-28T02:18:25.292Z,0
2017-03-28T02:19:05.815Z,0
2017-03-28T02:19:46.334Z,0
2017-03-28T02:20:26.851Z,0
2017-03-28T02:21:07.371Z,0
2017-03-28T02:21:47.890Z,0
2017-03-28T02:22:28.407Z,0
2017-03-28T02:23:08.943Z,0
2017-03-28T02:23:49.461Z,0
2017-03-28T02:24:29.974Z,0
2017-03-28T02:25:10.496Z,0
2017-03-28T02:25:51.023Z,0
2017-03-28T02:26:31.540Z,0
2017-03-28T02:27:12.050Z,0
2017-03-28T02:27:52.623Z,0
2017-03-28T02:28:33.095Z,0
2017-03-28T02:29:13.616Z,0
2017-03-28T02:29:54.151Z,0
2017-03-28T02:30:34.670Z,0
2017-03-28T02:31:15.251Z,0
2017-03-28T02:31:55.706Z,0
2017-03-28T02:32:36.227Z,0
2017-03-28T02:33:16.745Z,0
2017-03-28T02:33:57.262Z,0
2017-03-28T02:34:37.779Z,0
2017-03-28T02:35:18.295Z,0
2017-03-28T02:35:58.763Z,0
2017-03-28T02:36:39.278Z,0
2017-03-28T02:37:19.807Z,0
2017-03-28T02:38:00.333Z,0
2017-03-28T02:38:40.845Z,0
2017-03-28T02:39:21.369Z,0
2017-03-28T02:40:01.892Z,0
2017-03-28T02:40:42.399Z,0
2017-03-28T02:41:22.906Z,0
2017-03-28T02:42:03.432Z,0
2017-03-28T02:42:43.960Z,0
2017-03-28T02:43:24.489Z,0
2017-03-28T02:44:05.011Z,0
2017-03-28T02:44:45.516Z,0
2017-03-28T02:45:26.047Z,0
2017-03-28T02:46:06.655Z,0
2017-03-28T02:46:47.173Z,0
2017-03-28T02:47:27.762Z,0
2017-03-28T02:48:08.286Z,0
2017-03-28T02:48:48.813Z,0
2017-03-28T02:49:29.318Z,0
2017-03-28T02:50:09.851Z,0
2017-03-28T02:50:50.375Z,0
2017-03-28T02:51:30.890Z,0
2017-03-28T02:52:11.405Z,0
2017-03-28T02:52:51.922Z,0
2017-03-28T02:53:32.446Z,0
2017-03-28T02:54:12.971Z,0
2017-03-28T02:54:53.486Z,0
2017-03-28T02:55:34.027Z,0
2017-03-28T02:56:14.548Z,0
2017-03-28T02:56:55.071Z,0
2017-03-28T02:57:35.585Z,0
2017-03-28T02:58:16.088Z,0
2017-03-28T02:58:56.622Z,0
2017-03-28T02:59:37.163Z,0
2017-03-28T03:00:17.675Z,0
2017-03-28T03:00:58.179Z,0
2017-03-28T03:01:38.692Z,0
2017-03-28T03:02:19.211Z,0
2017-03-28T03:02:59.764Z,0
2017-03-28T03:03:40.282Z,0
2017-03-28T03:04:20.819Z,0
2017-03-28T03:05:01.337Z,0
2017-03-28T03:05:41.865Z,0
2017-03-28T03:06:22.370Z,0
2017-03-28T03:07:02.886Z,0
2017-03-28T03:07:43.396Z,0
2017-03-28T03:08:23.911Z,0
2017-03-28T03:09:04.428Z,0
2017-03-28T03:09:44.951Z,0
2017-03-28T03:10:25.468Z,0
2017-03-28T03:11:05.984Z,0
2017-03-28T03:11:46.518Z,0
2017-03-28T03:12:27.013Z,0
2017-03-28T03:13:07.533Z,0
2017-03-28T03:13:48.041Z,0
2017-03-28T03:14:28.546Z,0
2017-03-28T03:15:09.059Z,0
2017-03-28T03:15:49.553Z,0
2017-03-28T03:16:30.054Z,0
2017-03-28T03:17:10.565Z,0
2017-03-28T03:17:51.087Z,0
2017-03-28T03:18:31.604Z,0
2017-03-28T03:19:12.124Z,0
2017-03-28T03:19:52.647Z,0
2017-03-28T03:20:33.156Z,0
2017-03-28T03:21:13.668Z,0
2017-03-28T03:21:54.200Z,0
2017-03-28T03:22:34.741Z,0
2017-03-28T03:23:15.258Z,0
2017-03-28T03:23:55.770Z,0
2017-03-28T03:24:36.292Z,0
2017-03-28T03:25:16.808Z,0
2017-03-28T03:25:57.367Z,0
2017-03-28T03:26:37.845Z,0
2017-03-28T03:27:18.372Z,0
2017-03-28T03:27:58.894Z,0
2017-03-28T03:28:39.408Z,0
2017-03-28T03:29:19.922Z,0
2017-03-28T03:30:00.457Z,0
2017-03-28T03:30:40.971Z,0
2017-03-28T03:31:21.495Z,0
2017-03-28T03:32:02.046Z,0
2017-03-28T03:32:42.545Z,0
2017-03-28T03:33:23.075Z,0
2017-03-28T03:34:03.590Z,0
2017-03-28T03:34:44.112Z,0
2017-03-28T03:35:24.628Z,0
2017-03-28T03:36:05.160Z,0
2017-03-28T03:36:45.690Z,0
2017-03-28T03:39:14.222Z,0
2017-03-28T03:39:54.756Z,0
2017-03-28T03:40:35.287Z,0
2017-03-28T03:41:15.801Z,0
2017-03-28T03:41:56.325Z,0
2017-03-28T03:42:36.847Z,0
2017-03-28T03:43:17.371Z,0
2017-03-28T03:43:57.890Z,0
2017-03-28T03:44:38.403Z,0
2017-03-28T03:45:18.930Z,0
2017-03-28T03:45:59.459Z,0
2017-03-28T03:46:39.981Z,0
2017-03-28T03:47:20.503Z,0
2017-03-28T03:48:01.026Z,0
2017-03-28T03:48:41.544Z,0
2017-03-28T03:49:22.056Z,0
2017-03-28T03:50:02.572Z,0
2017-03-28T03:50:43.085Z,0
2017-03-28T03:51:23.611Z,0
2017-03-28T03:52:04.128Z,0
2017-03-28T03:52:44.645Z,0
2017-03-28T03:53:25.162Z,0
2017-03-28T03:54:05.687Z,0
2017-03-28T03:54:46.244Z,0
2017-03-28T03:55:26.784Z,0
2017-03-28T03:56:07.308Z,0
2017-03-28T03:56:47.815Z,0
2017-03-28T03:57:28.335Z,0
2017-03-28T03:58:08.865Z,0
2017-03-28T03:58:49.375Z,0
2017-03-28T03:59:29.890Z,0
2017-03-28T04:00:10.412Z,0
2017-03-28T04:00:50.902Z,0
2017-03-28T04:01:31.416Z,0
2017-03-28T04:02:11.926Z,0
2017-03-28T04:02:52.449Z,0
2017-03-28T04:03:32.962Z,0
2017-03-28T04:04:13.483Z,0
2017-03-28T04:04:54.002Z,0
2017-03-28T04:05:34.554Z,0
2017-03-28T04:06:15.051Z,0
2017-03-28T04:06:55.587Z,0
2017-03-28T04:07:36.103Z,0
2017-03-28T04:08:16.628Z,0
2017-03-28T04:08:57.140Z,0
2017-03-28T04:09:37.676Z,0
2017-03-28T04:10:18.190Z,0
2017-03-28T04:10:58.693Z,0
2017-03-28T04:11:39.187Z,0
2017-03-28T04:12:19.687Z,0
2017-03-28T04:13:00.193Z,0
2017-03-28T04:13:40.706Z,0
2017-03-28T04:14:21.227Z,0
2017-03-28T04:15:01.745Z,0
2017-03-28T04:15:42.268Z,0
2017-03-28T04:16:22.807Z,0
2017-03-28T04:17:03.363Z,0
2017-03-28T04:17:43.882Z,0
2017-03-28T04:18:24.385Z,0
2017-03-28T04:19:04.890Z,0
2017-03-28T04:19:45.415Z,0
2017-03-28T04:20:25.918Z,0
2017-03-28T04:21:06.444Z,0
2017-03-28T04:21:46.964Z,0
2017-03-28T04:22:27.472Z,0
2017-03-28T04:23:07.970Z,0
2017-03-28T04:23:48.489Z,0
2017-03-28T04:24:29.062Z,0
2017-03-28T04:25:09.560Z,0
2017-03-28T04:25:50.092Z,0
2017-03-28T04:26:30.634Z,0
2017-03-28T04:27:11.177Z,0
2017-03-28T04:27:51.682Z,0
2017-03-28T04:28:32.211Z,0
2017-03-28T04:29:12.730Z,0
2017-03-28T04:29:53.260Z,0
2017-03-28T04:30:33.767Z,0
2017-03-28T04:31:14.284Z,0
2017-03-28T04:31:54.803Z,0
2017-03-28T04:32:35.312Z,0
2017-03-28T04:33:15.826Z,0
2017-03-28T04:33:56.357Z,0
2017-03-28T04:34:36.883Z,0
2017-03-28T04:35:17.389Z,0
2017-03-28T04:35:57.916Z,0
2017-03-28T04:36:38.417Z,0
2017-03-28T04:37:18.951Z,0
2017-03-28T04:37:59.476Z,0
2017-03-28T04:38:40.006Z,0
2017-03-28T04:39:20.545Z,0
2017-03-28T04:40:01.071Z,0
2017-03-28T04:40:41.596Z,0
2017-03-28T04:41:22.112Z,0
2017-03-28T04:42:02.617Z,0
2017-03-28T04:42:43.135Z,0
2017-03-28T04:43:23.688Z,0
2017-03-28T04:44:04.204Z,0
2017-03-28T04:44:44.719Z,0
2017-03-28T04:45:25.226Z,0
2017-03-28T04:46:05.747Z,0
2017-03-28T04:46:46.252Z,0
2017-03-28T04:47:26.766Z,0
2017-03-28T04:48:07.281Z,0
2017-03-28T04:48:47.800Z,0
2017-03-28T04:49:28.314Z,0
2017-03-28T04:50:08.836Z,0
2017-03-28T04:50:49.353Z,0
2017-03-28T04:51:29.877Z,0
2017-03-28T04:52:10.393Z,0
2017-03-28T04:52:50.896Z,0
2017-03-28T04:53:31.417Z,0
2017-03-28T04:54:11.925Z,0
2017-03-28T04:54:52.446Z,0
2017-03-28T04:55:33.012Z,0
2017-03-28T04:56:13.517Z,0
2017-03-28T04:56:54.029Z,0
2017-03-28T04:57:34.536Z,0
2017-03-28T04:58:15.066Z,0
2017-03-28T04:58:55.560Z,0
2017-03-28T04:59:36.073Z,0
2017-03-28T05:00:16.581Z,0
2017-03-28T05:00:57.078Z,0
2017-03-28T05:01:37.605Z,0
2017-03-28T05:02:18.164Z,0
2017-03-28T05:02:58.629Z,0
2017-03-28T05:03:39.154Z,0
2017-03-28T05:04:19.652Z,0
2017-03-28T05:05:00.174Z,0
2017-03-28T05:05:40.731Z,0
2017-03-28T05:06:21.184Z,0
2017-03-28T05:07:01.681Z,0
2017-03-28T05:07:42.204Z,0
2017-03-28T05:08:22.740Z,0
2017-03-28T05:09:03.223Z,0
2017-03-28T05:09:43.742Z,0
2017-03-28T05:10:24.266Z,0
2017-03-28T05:11:04.806Z,5
2017-03-28T05:13:33.278Z,5
2017-03-28T05:14:13.793Z,5
2017-03-28T05:14:54.314Z,5
2017-03-28T05:15:34.810Z,5
2017-03-28T05:16:15.332Z,5
2017-03-28T05:16:55.848Z,5
2017-03-28T05:17:36.370Z,5
2017-03-28T05:18:16.888Z,5
2017-03-28T05:18:57.409Z,5
2017-03-28T05:19:37.907Z,10
2017-03-28T05:20:18.431Z,10
2017-03-28T05:20:58.931Z,10
2017-03-28T05:21:39.440Z,10
2017-03-28T05:22:19.980Z,10
2017-03-28T05:23:00.488Z,10
2017-03-28T05:23:41.008Z,10
2017-03-28T05:24:21.458Z,10
2017-03-28T05:25:01.991Z,10
2017-03-28T05:25:42.492Z,10
2017-03-28T05:26:22.982Z,15
2017-03-28T05:27:03.510Z,15
2017-03-28T05:27:44.014Z,15
2017-03-28T05:28:24.496Z,15
2017-03-28T05:29:05.006Z,15
2017-03-28T05:29:45.511Z,15
2017-03-28T05:30:26.009Z,15
2017-03-28T05:31:06.522Z,15
2017-03-28T05:31:47.038Z,20
2017-03-28T05:32:27.568Z,20
2017-03-28T05:33:08.048Z,20
2017-03-28T05:33:48.568Z,20
2017-03-28T05:34:29.065Z,20
2017-03-28T05:35:09.557Z,20
2017-03-28T05:35:50.050Z,20
2017-03-28T05:36:30.549Z,25
2017-03-28T05:37:11.065Z,25
2017-03-28T05:37:51.575Z,25
2017-03-28T05:38:32.104Z,25
2017-03-28T05:39:12.604Z,25
2017-03-28T05:39:53.075Z,25
2017-03-28T05:40:33.622Z,25
2017-03-28T05:41:14.088Z,25
2017-03-28T05:41:54.608Z,25
2017-03-28T05:42:35.125Z,30
2017-03-28T05:43:15.633Z,30
2017-03-28T05:43:56.144Z,30
2017-03-28T05:44:36.647Z,30
2017-03-28T05:45:17.172Z,30
2017-03-28T05:45:57.644Z,30
2017-03-28T05:46:38.131Z,30
2017-03-28T05:47:18.640Z,30
2017-03-28T05:47:59.180Z,30
2017-03-28T05:48:39.785Z,35
2017-03-28T05:49:20.214Z,35
2017-03-28T05:50:00.708Z,35
2017-03-28T05:50:41.265Z,35
2017-03-28T05:51:21.772Z,35
2017-03-28T05:52:02.231Z,35
2017-03-28T05:52:42.715Z,35
2017-03-28T05:53:23.221Z,35
2017-03-28T05:54:03.780Z,40
2017-03-28T05:54:44.236Z,40
2017-03-28T05:55:24.721Z,40
2017-03-28T05:56:05.155Z,40
2017-03-28T05:56:45.661Z,40
2017-03-28T05:57:26.249Z,40
2017-03-28T05:58:06.690Z,40
2017-03-28T05:58:47.195Z,40
2017-03-28T05:59:27.714Z,45
2017-03-28T06:00:08.230Z,45
2017-03-28T06:00:48.763Z,45
2017-03-28T06:01:29.268Z,45
2017-03-28T06:02:09.738Z,45
2017-03-28T06:02:50.271Z,45
2017-03-28T06:03:30.735Z,45
2017-03-28T06:04:11.289Z,45
2017-03-28T06:04:51.760Z,45
2017-03-28T06:05:32.270Z,45
2017-03-28T06:06:12.775Z,45
2017-03-28T06:06:53.311Z,50
2017-03-28T06:07:33.811Z,50
2017-03-28T06:08:14.331Z,50
2017-03-28T06:08:54.904Z,50
2017-03-28T06:09:35.390Z,50
2017-03-28T06:10:15.844Z,50
2017-03-28T06:10:56.333Z,50
2017-03-28T06:11:36.811Z,50
2017-03-28T06:12:17.305Z,50
2017-03-28T06:12:57.813Z,50
2017-03-28T06:13:38.273Z,50
2017-03-28T06:14:18.765Z,55
2017-03-28T06:14:59.292Z,55
2017-03-28T06:15:39.809Z,55
2017-03-28T06:16:20.331Z,55
2017-03-28T06:17:00.839Z,55
2017-03-28T06:17:41.359Z,55
2017-03-28T06:18:21.880Z,55
2017-03-28T06:19:02.368Z,55
2017-03-28T06:19:42.851Z,55
2017-03-28T06:22:21.595Z,55
2017-03-28T06:23:02.125Z,60
2017-03-28T06:23:42.634Z,60
2017-03-28T06:24:23.128Z,60
2017-03-28T06:25:03.658Z,60
2017-03-28T06:25:44.176Z,60
2017-03-28T06:26:24.706Z,60
2017-03-28T06:27:05.243Z,60
2017-03-28T06:27:45.798Z,60
2017-03-28T06:28:26.354Z,60
2017-03-28T06:29:06.881Z,60
2017-03-28T06:29:47.395Z,60
2017-03-28T06:30:27.907Z,60
2017-03-28T06:31:08.422Z,60
2017-03-28T06:31:48.935Z,60
2017-03-28T06:32:29.459Z,60
2017-03-28T06:33:09.983Z,60
2017-03-28T06:33:50.488Z,65
2017-03-28T06:34:31.015Z,65
2017-03-28T06:35:11.537Z,60
2017-03-28T06:35:52.052Z,65
2017-03-28T06:36:32.566Z,65
2017-03-28T06:37:13.063Z,65
2017-03-28T06:37:53.581Z,65
2017-03-28T06:38:34.102Z,65
2017-03-28T06:39:14.623Z,65
2017-03-28T06:39:55.138Z,65
2017-03-28T06:40:35.630Z,65
2017-03-28T06:41:16.148Z,65
2017-03-28T06:41:56.626Z,65
2017-03-28T06:42:37.116Z,65
2017-03-28T06:43:17.658Z,65
2017-03-28T06:43:58.143Z,65
2017-03-28T06:44:38.741Z,65
2017-03-28T06:45:19.350Z,65
2017-03-28T06:45:59.826Z,65
2017-03-28T06:46:40.315Z,65
2017-03-28T06:47:20.766Z,65
2017-03-28T06:48:01.309Z,65
2017-03-28T06:48:41.817Z,65
2017-03-28T06:49:22.259Z,65
2017-03-28T06:50:02.772Z,65
2017-03-28T06:50:43.266Z,65
2017-03-28T06:51:23.765Z,70
2017-03-28T06:52:04.251Z,70
2017-03-28T06:52:44.762Z,70
2017-03-28T06:53:25.265Z,70
2017-03-28T06:54:05.732Z,70
2017-03-28T06:54:46.209Z,70
2017-03-28T06:55:26.707Z,70
2017-03-28T06:56:07.177Z,70
2017-03-28T06:56:47.670Z,70
2017-03-28T06:57:28.188Z,70
2017-03-28T06:58:08.712Z,70
2017-03-28T06:58:49.177Z,70
2017-03-28T06:59:29.702Z,70
2017-03-28T07:00:10.208Z,70
2017-03-28T07:00:50.692Z,70
2017-03-28T07:01:31.188Z,70
2017-03-28T07:02:11.698Z,70
2017-03-28T07:02:52.193Z,70
2017-03-28T07:03:32.653Z,70
2017-03-28T07:04:13.146Z,70
2017-03-28T07:04:53.687Z,75
2017-03-28T07:05:34.183Z,80
2017-03-28T07:06:14.672Z,80
2017-03-28T07:06:55.188Z,90
2017-03-28T07:07:35.681Z,95
2017-03-28T07:08:16.203Z,100
2017-03-28T07:08:56.710Z,100
2017-03-28T07:09:37.216Z,105
2017-03-28T07:10:17.756Z,105
2017-03-28T07:10:58.280Z,105
2017-03-28T07:11:38.805Z,105
2017-03-28T07:12:19.311Z,105
2017-03-28T07:12:59.802Z,105
2017-03-28T07:13:40.324Z,105
2017-03-28T07:14:20.862Z,105
2017-03-28T07:15:01.386Z,105
2017-03-28T07:15:41.951Z,105
2017-03-28T07:16:22.469Z,105
2017-03-28T07:17:02.996Z,105
2017-03-28T07:17:43.514Z,105
2017-03-28T07:18:24.036Z,105
2017-03-28T07:19:04.548Z,105
2017-03-28T07:19:45.068Z,105
2017-03-28T07:20:25.595Z,105
2017-03-28T07:21:06.129Z,105
2017-03-28T07:21:46.645Z,105
2017-03-28T07:22:27.166Z,105
2017-03-28T07:23:07.681Z,100
2017-03-28T07:23:48.184Z,100
2017-03-28T07:24:28.708Z,100
2017-03-28T07:25:09.239Z,100
2017-03-28T07:25:49.746Z,100
2017-03-28T07:26:30.274Z,100
2017-03-28T07:27:10.792Z,100
2017-03-28T07:27:51.319Z,100
2017-03-28T07:28:31.810Z,100
2017-03-28T07:29:12.315Z,100
2017-03-28T07:29:52.806Z,100
2017-03-28T07:30:33.340Z,100
2017-03-28T07:31:13.807Z,100
2017-03-28T07:31:54.331Z,100
2017-03-28T07:34:22.353Z,95
2017-03-28T07:35:02.889Z,100
2017-03-28T07:35:43.443Z,95
2017-03-28T07:36:23.938Z,100
2017-03-28T07:37:04.435Z,95
2017-03-28T07:37:44.941Z,95
2017-03-28T07:38:25.463Z,95
2017-03-28T07:39:05.992Z,95
2017-03-28T07:39:46.497Z,95
2017-03-28T07:40:27.050Z,95
2017-03-28T07:41:07.590Z,95
2017-03-28T07:41:48.078Z,95
2017-03-28T07:42:28.602Z,95
2017-03-28T07:43:09.080Z,95
2017-03-28T07:43:49.596Z,90
2017-03-28T07:44:30.102Z,90
2017-03-28T07:45:10.495Z,85
2017-03-28T07:45:50.984Z,85
2017-03-28T07:46:31.460Z,85
2017-03-28T07:47:11.971Z,85
2017-03-28T07:47:52.452Z,85
2017-03-28T07:48:32.939Z,85
2017-03-28T07:49:13.492Z,85
2017-03-28T07:49:53.921Z,85
2017-03-28T07:50:34.398Z,85
2017-03-28T07:51:14.931Z,85
2017-03-28T07:51:55.389Z,85
2017-03-28T07:52:36.001Z,80
2017-03-28T07:53:16.394Z,80
2017-03-28T07:53:56.949Z,80
2017-03-28T07:54:37.402Z,80
2017-03-28T07:55:17.910Z,80
2017-03-28T07:55:58.547Z,80
2017-03-28T07:56:39.046Z,80
2017-03-28T07:57:19.481Z,80
2017-03-28T07:57:59.976Z,80
2017-03-28T07:58:40.575Z,80
2017-03-28T07:59:21.029Z,80
2017-03-28T08:00:01.550Z,80
2017-03-28T08:00:42.055Z,80
2017-03-28T08:01:22.511Z,80
2017-03-28T08:02:03.001Z,80
2017-03-28T08:02:43.482Z,80
2017-03-28T08:03:23.977Z,80
2017-03-28T08:04:04.465Z,80
2017-03-28T08:04:45.029Z,80
2017-03-28T08:05:25.529Z,75
2017-03-28T08:06:05.957Z,80
2017-03-28T08:06:46.468Z,80
2017-03-28T08:07:27.007Z,80
2017-03-28T08:08:07.497Z,75
2017-03-28T08:08:48.002Z,75
2017-03-28T08:09:28.478Z,80
2017-03-28T08:10:08.968Z,75
2017-03-28T08:10:49.461Z,75
2017-03-28T08:11:29.951Z,80
2017-03-28T08:12:10.447Z,75
2017-03-28T08:12:50.979Z,80
2017-03-28T08:13:31.468Z,75
2017-03-28T08:14:11.981Z,80
2017-03-28T08:14:52.478Z,75
2017-03-28T08:15:32.944Z,75
2017-03-28T08:16:13.473Z,75
2017-03-28T08:16:53.976Z,75
2017-03-28T08:17:34.496Z,80
2017-03-28T08:18:14.968Z,80
2017-03-28T08:18:55.443Z,80
2017-03-28T08:19:35.943Z,80
2017-03-28T08:20:16.426Z,80
2017-03-28T08:20:56.890Z,80
2017-03-28T08:21:37.434Z,80
2017-03-28T08:22:17.961Z,80
2017-03-28T08:22:58.436Z,80
2017-03-28T08:23:38.909Z,80
2017-03-28T08:24:19.449Z,80
2017-03-28T08:24:59.936Z,75
2017-03-28T08:25:40.488Z,75
2017-03-28T08:26:21.005Z,75
2017-03-28T08:27:01.449Z,80
2017-03-28T08:27:41.925Z,80
2017-03-28T08:28:22.428Z,80
2017-03-28T08:29:02.906Z,80
2017-03-28T08:29:43.427Z,75
2017-03-28T08:30:24.088Z,80
2017-03-28T08:31:04.617Z,80
2017-03-28T08:31:45.093Z,80
2017-03-28T08:32:25.688Z,80
2017-03-28T08:33:06.208Z,80
2017-03-28T08:33:46.705Z,80
2017-03-28T08:34:27.215Z,80
2017-03-28T08:35:07.669Z,80
2017-03-28T08:35:48.168Z,80
2017-03-28T08:36:28.658Z,80
2017-03-28T08:37:09.181Z,80
2017-03-28T08:37:49.664Z,80
2017-03-28T08:38:30.223Z,80
2017-03-28T08:39:10.696Z,80
2017-03-28T08:39:51.183Z,80
2017-03-28T08:40:31.646Z,80
2017-03-28T08:41:12.168Z,80
2017-03-28T08:41:52.647Z,75
2017-03-28T08:42:33.176Z,80
2017-03-28T08:43:13.664Z,75
2017-03-28T08:43:54.092Z,80
2017-03-28T08:44:34.589Z,80
2017-03-28T08:45:15.082Z,80
2017-03-28T08:45:55.564Z,80
2017-03-28T08:46:36.075Z,75
2017-03-28T08:47:16.591Z,75
2017-03-28T08:47:57.077Z,75
2017-03-28T08:48:37.599Z,75
2017-03-28T08:49:18.067Z,75
2017-03-28T08:49:58.544Z,75
2017-03-28T08:50:39.082Z,75
2017-03-28T08:51:19.518Z,75
2017-03-28T08:52:00.011Z,80
2017-03-28T08:52:40.508Z,80
2017-03-28T08:53:20.969Z,80
2017-03-28T08:54:01.474Z,80
2017-03-28T08:54:41.971Z,80
2017-03-28T08:55:22.483Z,75
2017-03-28T08:56:02.972Z,75
2017-03-28T08:56:43.535Z,75
2017-03-28T08:57:23.985Z,75
2017-03-28T08:58:04.501Z,75
2017-03-28T08:58:45.083Z,75
2017-03-28T08:59:25.623Z,75
2017-03-28T09:00:06.063Z,75
2017-03-28T09:00:46.589Z,75
2017-03-28T09:01:27.060Z,75
2017-03-28T09:02:07.582Z,75
2017-03-28T09:02:48.110Z,75
2017-03-28T09:03:28.645Z,75
2017-03-28T09:04:09.107Z,75
2017-03-28T09:04:49.686Z,75
2017-03-28T09:05:30.180Z,75
2017-03-28T09:06:10.728Z,75
2017-03-28T09:06:51.196Z,75
2017-03-28T09:07:31.714Z,75
2017-03-28T09:08:12.182Z,75
2017-03-28T09:08:52.675Z,75
2017-03-28T09:09:33.204Z,75
2017-03-28T09:10:13.671Z,75
2017-03-28T09:10:54.213Z,75
2017-03-28T09:11:34.700Z,75
2017-03-28T09:12:15.173Z,75
2017-03-28T09:12:55.656Z,75
2017-03-28T09:13:36.171Z,75
2017-03-28T09:14:16.753Z,75
2017-03-28T09:14:57.256Z,75
2017-03-28T09:15:37.766Z,75
2017-03-28T09:16:18.270Z,75
2017-03-28T09:16:58.761Z,75
2017-03-28T09:17:39.268Z,75
2017-03-28T09:18:20.850Z,75
2017-03-28T09:19:01.764Z,75
2017-03-28T09:19:42.295Z,75
2017-03-28T09:20:22.828Z,75
2017-03-28T09:21:03.346Z,75
2017-03-28T09:21:43.843Z,75
2017-03-28T09:22:24.304Z,70
2017-03-28T09:23:04.833Z,75
2017-03-28T09:23:45.369Z,70
2017-03-28T09:24:25.887Z,70
2017-03-28T09:25:06.332Z,70
2017-03-28T09:25:46.846Z,75
2017-03-28T09:26:27.339Z,70
2017-03-28T09:27:07.802Z,70
2017-03-28T09:27:48.280Z,70
2017-03-28T09:28:28.815Z,70
2017-03-28T09:29:09.277Z,70
2017-03-28T09:29:49.770Z,70
2017-03-28T09:30:30.268Z,70
2017-03-28T09:31:10.761Z,70
2017-03-28T09:31:51.249Z,70
2017-03-28T09:32:31.750Z,70
2017-03-28T09:33:12.273Z,70
2017-03-28T09:33:52.774Z,70
2017-03-28T09:34:33.270Z,70
2017-03-28T09:35:13.789Z,70
2017-03-28T09:35:54.337Z,70
2017-03-28T09:36:34.778Z,70
2017-03-28T09:37:15.242Z,75
2017-03-28T09:37:55.731Z,70
2017-03-28T09:38:36.226Z,70
2017-03-28T09:39:16.701Z,70
2017-03-28T09:39:57.247Z,70
2017-03-28T09:40:37.728Z,70
2017-03-28T09:41:18.327Z,70
2017-03-28T09:41:58.810Z,70
2017-03-28T09:42:39.342Z,70
2017-03-28T09:43:19.769Z,70
2017-03-28T09:44:00.256Z,70
2017-03-28T09:44:40.826Z,75
2017-03-28T09:45:21.320Z,70
2017-03-28T09:46:01.961Z,75
2017-03-28T09:46:42.451Z,75
2017-03-28T09:47:22.919Z,70
2017-03-28T09:48:03.425Z,70
2017-03-28T09:48:44.008Z,70
2017-03-28T09:49:24.537Z,70
2017-03-28T09:50:08.110Z,70
2017-03-28T09:50:48.712Z,70
2017-03-28T09:51:29.208Z,70
2017-03-28T09:52:09.710Z,70
2017-03-28T09:52:50.218Z,70
2017-03-28T09:53:30.764Z,70
2017-03-28T09:54:11.226Z,70
2017-03-28T09:54:51.720Z,70
2017-03-28T09:55:32.174Z,70